createdAt,value
2022-09-28T00:00:11.329Z,9.60
2022-09-28T00:01:17.923Z,9.60
2022-09-28T00:02:20.029Z,9.60
2022-09-28T00:03:21.786Z,9.60
2022-09-28T00:04:23.920Z,9.60
2022-09-28T00:05:29.112Z,9.60
2022-09-28T00:06:31.034Z,9.60
2022-09-28T00:07:32.859Z,9.60
2022-09-28T00:08:35.932Z,9.60
2022-09-28T00:09:38.395Z,9.60
2022-09-28T00:10:41.619Z,9.50
2022-09-28T00:11:46.907Z,9.50
2022-09-28T00:12:49.489Z,9.50
2022-09-28T00:13:53.020Z,9.50
2022-09-28T00:14:54.701Z,9.50
2022-09-28T00:16:00.998Z,9.50
2022-09-28T00:17:02.798Z,9.50
2022-09-28T00:18:04.576Z,9.50
2022-09-28T00:19:06.597Z,9.50
2022-09-28T00:20:08.724Z,9.50
2022-09-28T00:21:17.145Z,9.40
2022-09-28T00:22:18.808Z,9.40
2022-09-28T00:23:20.603Z,9.40
2022-09-28T00:24:27.375Z,9.40
2022-09-28T00:25:30.116Z,9.40
2022-09-28T00:26:33.212Z,9.40
2022-09-28T00:27:34.906Z,9.40
2022-09-28T00:28:36.543Z,9.40
2022-09-28T00:29:38.701Z,9.40
2022-09-28T00:30:40.365Z,9.40
2022-09-28T00:31:42.379Z,9.40
2022-09-28T00:32:44.103Z,9.40
2022-09-28T00:33:49.576Z,9.40
2022-09-28T00:34:52.048Z,9.40
2022-09-28T00:35:58.202Z,9.40
2022-09-28T00:37:00.776Z,9.40
2022-09-28T00:38:04.011Z,9.40
2022-09-28T00:39:07.785Z,9.30
2022-09-28T00:40:09.780Z,9.30
2022-09-28T00:41:11.880Z,9.30
2022-09-28T00:42:16.768Z,9.30
2022-09-28T00:43:20.575Z,9.30
2022-09-28T00:44:35.923Z,9.30
2022-09-28T00:45:37.757Z,9.30
2022-09-28T00:46:40.340Z,9.20
2022-09-28T00:47:51.849Z,9.20
2022-09-28T00:49:03.124Z,9.20
2022-09-28T00:50:14.665Z,9.20
2022-09-28T00:51:16.544Z,9.20
2022-09-28T00:52:34.094Z,9.10
2022-09-28T00:53:39.327Z,9.10
2022-09-28T00:54:43.540Z,9.00
2022-09-28T00:55:51.959Z,9.00
2022-09-28T00:56:53.720Z,9.00
2022-09-28T00:57:58.083Z,9.00
2022-09-28T00:59:01.197Z,8.90
2022-09-28T01:00:05.128Z,8.90
2022-09-28T01:01:07.326Z,8.90
2022-09-28T01:02:10.579Z,8.90
2022-09-28T01:03:14.257Z,8.90
2022-09-28T01:04:16.277Z,8.90
2022-09-28T01:05:19.206Z,8.80
2022-09-28T01:06:23.477Z,8.80
2022-09-28T01:07:25.635Z,8.80
2022-09-28T01:08:29.308Z,8.80
2022-09-28T01:09:32.408Z,8.80
2022-09-28T01:10:34.810Z,8.80
2022-09-28T01:11:38.734Z,8.80
2022-09-28T01:12:40.525Z,8.80
2022-09-28T01:13:43.338Z,8.70
2022-09-28T01:14:45.549Z,8.70
2022-09-28T01:15:57.769Z,8.70
2022-09-28T01:17:17.876Z,8.70
2022-09-28T01:18:29.747Z,8.60
2022-09-28T01:20:06.411Z,8.60
2022-09-28T01:21:20.816Z,8.50
2022-09-28T01:22:33.128Z,8.50
2022-09-28T01:24:05.603Z,8.50
2022-09-28T01:25:12.209Z,8.40
2022-09-28T01:26:38.513Z,8.40
2022-09-28T01:27:40.285Z,8.40
2022-09-28T01:28:46.184Z,8.40
2022-09-28T01:30:07.891Z,8.40
2022-09-28T01:32:52.272Z,8.40
2022-09-28T01:34:15.240Z,8.30
2022-09-28T01:35:20.242Z,8.30
2022-09-28T01:36:29.952Z,8.30
2022-09-28T01:37:41.055Z,8.30
2022-09-28T01:38:53.344Z,8.30
2022-09-28T01:39:57.045Z,8.30
2022-09-28T01:41:00.848Z,8.30
2022-09-28T01:42:11.949Z,8.30
2022-09-28T01:43:42.735Z,8.30
2022-09-28T01:44:47.557Z,8.30
2022-09-28T01:45:53.274Z,8.30
2022-09-28T01:46:55.229Z,8.30
2022-09-28T01:48:01.968Z,8.30
2022-09-28T01:49:19.170Z,8.30
2022-09-28T01:50:25.653Z,8.30
2022-09-28T01:51:41.146Z,8.30
2022-09-28T01:53:06.371Z,8.20
2022-09-28T01:54:16.598Z,8.20
2022-09-28T01:55:26.315Z,8.20
2022-09-28T01:56:34.287Z,8.20
2022-09-28T01:58:05.682Z,8.20
2022-09-28T01:59:14.891Z,8.20
2022-09-28T02:00:19.004Z,8.10
2022-09-28T02:01:39.710Z,8.10
2022-09-28T02:02:56.185Z,8.10
2022-09-28T02:04:10.210Z,8.10
2022-09-28T02:05:16.360Z,8.10
2022-09-28T02:06:34.976Z,8.10
2022-09-28T02:07:46.123Z,8.10
2022-09-28T02:08:56.666Z,8.10
2022-09-28T02:10:13.119Z,8.10
2022-09-28T02:11:17.293Z,8.10
2022-09-28T02:12:33.487Z,8.00
2022-09-28T02:13:42.656Z,8.00
2022-09-28T02:14:49.072Z,8.00
2022-09-28T02:15:56.076Z,8.00
2022-09-28T02:16:58.477Z,8.00
2022-09-28T02:18:00.475Z,8.00
2022-09-28T02:19:03.885Z,8.00
2022-09-28T02:20:06.935Z,8.00
2022-09-28T02:21:16.137Z,8.10
2022-09-28T02:22:34.349Z,8.10
2022-09-28T02:23:39.772Z,8.10
2022-09-28T02:24:59.686Z,8.00
2022-09-28T02:26:05.630Z,8.10
2022-09-28T02:27:18.950Z,8.00
2022-09-28T02:28:21.066Z,8.00
2022-09-28T02:29:24.268Z,8.00
2022-09-28T02:30:26.753Z,8.00
2022-09-28T02:31:28.842Z,8.00
2022-09-28T02:32:33.637Z,8.00
2022-09-28T02:33:38.802Z,8.00
2022-09-28T02:34:40.616Z,8.10
2022-09-28T02:35:43.148Z,8.00
2022-09-28T02:36:47.199Z,8.00
2022-09-28T02:37:50.524Z,8.00
2022-09-28T02:38:53.319Z,8.00
2022-09-28T02:39:55.425Z,8.00
2022-09-28T02:41:21.723Z,8.00
2022-09-28T02:43:01.314Z,8.00
2022-09-28T02:44:40.526Z,8.00
2022-09-28T02:46:10.319Z,8.00
2022-09-28T02:47:24.576Z,7.90
2022-09-28T02:49:20.413Z,7.90
2022-09-28T02:50:29.846Z,7.90
2022-09-28T02:51:44.236Z,7.80
2022-09-28T02:53:16.742Z,7.90
2022-09-28T02:54:55.425Z,7.90
2022-09-28T02:56:25.634Z,7.80
2022-09-28T02:58:03.678Z,7.80
2022-09-28T02:59:22.640Z,7.80
2022-09-28T03:00:25.340Z,7.70
2022-09-28T03:01:32.904Z,7.70
2022-09-28T03:03:04.385Z,7.80
2022-09-28T03:04:24.815Z,7.70
2022-09-28T03:05:41.643Z,7.70
2022-09-28T03:06:54.789Z,7.70
2022-09-28T03:08:00.983Z,7.70
2022-09-28T03:09:18.084Z,7.70
2022-09-28T03:10:37.489Z,7.70
2022-09-28T03:12:16.477Z,7.70
2022-09-28T03:13:18.626Z,7.70
2022-09-28T03:14:20.599Z,7.60
2022-09-28T03:15:28.794Z,7.60
2022-09-28T03:16:32.367Z,7.60
2022-09-28T03:17:34.107Z,7.60
2022-09-28T03:18:36.167Z,7.60
2022-09-28T03:19:38.053Z,7.60
2022-09-28T03:20:39.728Z,7.60
2022-09-28T03:21:42.177Z,7.60
2022-09-28T03:22:55.808Z,7.60
2022-09-28T03:24:06.398Z,7.60
2022-09-28T03:25:08.804Z,7.60
2022-09-28T03:26:14.974Z,7.60
2022-09-28T03:27:16.809Z,7.60
2022-09-28T03:28:18.994Z,7.50
2022-09-28T03:29:21.088Z,7.50
2022-09-28T03:30:22.936Z,7.50
2022-09-28T03:31:24.830Z,7.50
2022-09-28T03:32:26.835Z,7.50
2022-09-28T03:33:29.005Z,7.50
2022-09-28T03:34:30.787Z,7.50
2022-09-28T03:35:32.651Z,7.50
2022-09-28T03:36:34.445Z,7.50
2022-09-28T03:37:36.909Z,7.50
2022-09-28T03:38:38.887Z,7.50
2022-09-28T03:39:41.004Z,7.50
2022-09-28T03:40:43.265Z,7.40
2022-09-28T03:41:45.187Z,7.40
2022-09-28T03:42:46.862Z,7.40
2022-09-28T03:43:48.885Z,7.40
2022-09-28T03:44:50.617Z,7.40
2022-09-28T03:45:56.746Z,7.40
2022-09-28T03:46:58.487Z,7.40
2022-09-28T03:48:00.824Z,7.40
2022-09-28T03:49:03.096Z,7.40
2022-09-28T03:50:06.132Z,7.40
2022-09-28T03:51:10.596Z,7.30
2022-09-28T03:52:13.775Z,7.30
2022-09-28T03:53:15.627Z,7.30
2022-09-28T03:54:17.453Z,7.30
2022-09-28T03:55:19.329Z,7.30
2022-09-28T03:56:21.582Z,7.30
2022-09-28T03:57:23.228Z,7.30
2022-09-28T03:58:28.117Z,7.30
2022-09-28T03:59:30.876Z,7.30
2022-09-28T04:00:32.873Z,7.20
2022-09-28T04:01:34.874Z,7.20
2022-09-28T04:02:36.839Z,7.20
2022-09-28T04:03:38.581Z,7.20
2022-09-28T04:04:40.596Z,7.20
2022-09-28T04:05:52.891Z,7.20
2022-09-28T04:06:54.673Z,7.10
2022-09-28T04:07:57.891Z,7.10
2022-09-28T04:09:00.046Z,7.10
2022-09-28T04:10:02.968Z,7.10
2022-09-28T04:11:04.886Z,7.10
2022-09-28T04:12:07.469Z,7.10
2022-09-28T04:13:09.521Z,7.10
2022-09-28T04:14:11.218Z,7.10
2022-09-28T04:15:13.439Z,7.10
2022-09-28T04:16:15.915Z,7.10
2022-09-28T04:17:17.831Z,7.10
2022-09-28T04:18:19.866Z,7.10
2022-09-28T04:19:22.369Z,7.10
2022-09-28T04:20:24.041Z,7.10
2022-09-28T04:21:25.891Z,7.10
2022-09-28T04:22:27.749Z,7.10
2022-09-28T04:23:29.961Z,7.10
2022-09-28T04:24:31.711Z,7.10
2022-09-28T04:25:33.388Z,7.10
2022-09-28T04:26:35.152Z,7.10
2022-09-28T04:27:55.399Z,7.10
2022-09-28T04:29:16.094Z,7.10
2022-09-28T04:30:18.196Z,7.00
2022-09-28T04:31:23.752Z,7.00
2022-09-28T04:32:25.643Z,7.00
2022-09-28T04:33:27.431Z,7.00
2022-09-28T04:34:34.488Z,7.00
2022-09-28T04:35:37.720Z,7.10
2022-09-28T04:36:39.689Z,7.00
2022-09-28T04:37:41.709Z,7.10
2022-09-28T04:38:58.847Z,7.10
2022-09-28T04:40:00.915Z,7.10
2022-09-28T04:41:03.429Z,7.10
2022-09-28T04:42:05.711Z,7.10
2022-09-28T04:43:08.306Z,7.10
2022-09-28T04:44:10.423Z,7.10
2022-09-28T04:45:12.103Z,7.10
2022-09-28T04:46:14.761Z,7.10
2022-09-28T04:47:16.655Z,7.20
2022-09-28T04:48:18.475Z,7.20
2022-09-28T04:49:21.207Z,7.20
2022-09-28T04:50:22.919Z,7.10
2022-09-28T04:51:24.767Z,7.20
2022-09-28T04:52:27.368Z,7.20
2022-09-28T04:53:30.451Z,7.20
2022-09-28T04:54:32.310Z,7.20
2022-09-28T04:55:34.192Z,7.20
2022-09-28T04:56:36.091Z,7.20
2022-09-28T04:57:37.797Z,7.20
2022-09-28T04:58:40.536Z,7.20
2022-09-28T04:59:42.252Z,7.20
2022-09-28T05:00:44.105Z,7.20
2022-09-28T05:01:45.930Z,7.10
2022-09-28T05:02:47.610Z,7.10
2022-09-28T05:03:50.015Z,7.20
2022-09-28T05:04:53.468Z,7.20
2022-09-28T05:05:55.461Z,7.20
2022-09-28T05:06:57.867Z,7.20
2022-09-28T05:07:59.622Z,7.20
2022-09-28T05:09:01.439Z,7.20
2022-09-28T05:10:03.460Z,7.20
2022-09-28T05:11:07.550Z,7.30
2022-09-28T05:12:09.934Z,7.30
2022-09-28T05:13:13.344Z,7.30
2022-09-28T05:14:15.249Z,7.30
2022-09-28T05:15:16.999Z,7.30
2022-09-28T05:16:20.398Z,7.40
2022-09-28T05:17:23.119Z,7.40
2022-09-28T05:18:25.147Z,7.40
2022-09-28T05:19:26.924Z,7.40
2022-09-28T05:20:28.740Z,7.40
2022-09-28T05:21:31.129Z,7.40
2022-09-28T05:22:33.367Z,7.40
2022-09-28T05:23:35.004Z,7.40
2022-09-28T05:24:36.669Z,7.50
2022-09-28T05:25:39.702Z,7.50
2022-09-28T05:26:41.495Z,7.50
2022-09-28T05:27:43.297Z,7.50
2022-09-28T05:28:45.179Z,7.50
2022-09-28T05:29:47.004Z,7.50
2022-09-28T05:30:49.056Z,7.50
2022-09-28T05:31:50.891Z,7.50
2022-09-28T05:32:53.364Z,7.60
2022-09-28T05:33:55.443Z,7.60
2022-09-28T05:34:57.505Z,7.60
2022-09-28T05:36:01.690Z,7.60
2022-09-28T05:37:03.556Z,7.60
2022-09-28T05:38:05.717Z,7.60
2022-09-28T05:39:07.661Z,7.70
2022-09-28T05:40:10.346Z,7.70
2022-09-28T05:41:12.761Z,7.70
2022-09-28T05:42:14.591Z,7.70
2022-09-28T05:43:16.345Z,7.70
2022-09-28T05:44:27.498Z,7.70
2022-09-28T05:45:29.819Z,7.80
2022-09-28T05:46:31.808Z,7.80
2022-09-28T05:47:41.371Z,7.80
2022-09-28T05:48:43.366Z,7.80
2022-09-28T05:49:45.296Z,7.80
2022-09-28T05:50:51.936Z,7.80
2022-09-28T05:51:53.608Z,7.90
2022-09-28T05:53:02.784Z,7.90
2022-09-28T05:54:06.328Z,7.90
2022-09-28T05:55:09.088Z,7.90
2022-09-28T05:56:11.244Z,7.90
2022-09-28T05:57:14.013Z,8.00
2022-09-28T05:58:16.148Z,8.00
2022-09-28T05:59:17.982Z,8.00
2022-09-28T06:00:20.022Z,8.00
2022-09-28T06:01:21.885Z,8.00
2022-09-28T06:02:24.276Z,8.10
2022-09-28T06:03:26.154Z,8.10
2022-09-28T06:04:28.523Z,8.10
2022-09-28T06:05:32.058Z,8.10
2022-09-28T06:06:35.791Z,8.10
2022-09-28T06:07:37.722Z,8.20
2022-09-28T06:08:42.965Z,8.20
2022-09-28T06:09:45.258Z,8.20
2022-09-28T06:10:46.967Z,8.20
2022-09-28T06:11:51.019Z,8.30
2022-09-28T06:12:54.907Z,8.30
2022-09-28T06:13:56.961Z,8.30
2022-09-28T06:15:00.728Z,8.40
2022-09-28T06:16:09.107Z,8.40
2022-09-28T06:17:11.037Z,8.40
2022-09-28T06:18:15.030Z,8.50
2022-09-28T06:19:16.914Z,8.50
2022-09-28T06:20:18.791Z,8.60
2022-09-28T06:21:20.635Z,8.60
2022-09-28T06:22:22.501Z,8.60
2022-09-28T06:23:24.335Z,8.70
2022-09-28T06:24:26.188Z,8.70
2022-09-28T06:25:28.621Z,8.80
2022-09-28T06:26:31.111Z,8.80
2022-09-28T06:27:34.377Z,8.80
2022-09-28T06:28:36.461Z,8.90
2022-09-28T06:29:38.310Z,8.90
2022-09-28T06:30:41.492Z,9.00
2022-09-28T06:31:43.217Z,9.00
2022-09-28T06:32:45.077Z,9.00
2022-09-28T06:33:48.550Z,9.10
2022-09-28T06:34:55.417Z,9.20
2022-09-28T06:35:59.700Z,9.40
2022-09-28T06:37:04.633Z,9.60
2022-09-28T06:38:06.920Z,9.60
2022-09-28T06:39:08.665Z,9.60
2022-09-28T06:40:10.819Z,9.60
2022-09-28T06:41:12.709Z,9.60
2022-09-28T06:42:16.210Z,9.60
2022-09-28T06:43:18.177Z,9.60
2022-09-28T06:44:21.086Z,9.60
2022-09-28T06:45:25.242Z,9.60
2022-09-28T06:46:27.341Z,9.60
2022-09-28T06:47:29.320Z,9.60
2022-09-28T06:48:33.995Z,9.60
2022-09-28T06:49:35.842Z,9.60
2022-09-28T06:50:40.935Z,9.60
2022-09-28T06:51:43.229Z,9.60
2022-09-28T06:52:45.168Z,9.70
2022-09-28T06:53:47.463Z,9.70
2022-09-28T06:54:49.163Z,9.80
2022-09-28T06:55:51.990Z,9.80
2022-09-28T06:56:53.975Z,9.80
2022-09-28T06:58:07.423Z,9.80
2022-09-28T06:59:09.099Z,9.90
2022-09-28T07:00:11.669Z,9.90
2022-09-28T07:01:13.459Z,9.90
2022-09-28T07:02:15.365Z,9.90
2022-09-28T07:03:20.460Z,9.90
2022-09-28T07:04:22.380Z,10.00
2022-09-28T07:05:27.726Z,10.00
2022-09-28T07:06:31.672Z,10.10
2022-09-28T07:07:33.927Z,10.10
2022-09-28T07:08:35.918Z,10.10
2022-09-28T07:09:43.758Z,10.20
2022-09-28T07:10:50.256Z,10.20
2022-09-28T07:11:53.148Z,10.30
2022-09-28T07:12:56.949Z,10.30
2022-09-28T07:13:58.745Z,10.30
2022-09-28T07:15:00.676Z,10.30
2022-09-28T07:16:02.404Z,10.40
2022-09-28T07:17:13.610Z,10.30
2022-09-28T07:18:18.873Z,10.40
2022-09-28T07:19:20.933Z,10.40
2022-09-28T07:20:22.665Z,10.40
2022-09-28T07:21:29.926Z,10.40
2022-09-28T07:22:42.488Z,10.50
2022-09-28T07:23:53.184Z,10.50
2022-09-28T07:24:55.851Z,10.50
2022-09-28T07:25:58.427Z,10.50
2022-09-28T07:27:00.283Z,10.60
2022-09-28T07:28:04.583Z,10.60
2022-09-28T07:29:06.461Z,10.60
2022-09-28T07:30:08.782Z,10.60
2022-09-28T07:31:10.996Z,10.60
2022-09-28T07:32:12.955Z,10.70
2022-09-28T07:33:16.272Z,10.70
2022-09-28T07:34:18.618Z,10.70
2022-09-28T07:35:20.758Z,10.80
2022-09-28T07:36:23.076Z,10.80
2022-09-28T07:37:26.702Z,10.80
2022-09-28T07:38:28.898Z,10.90
2022-09-28T07:39:30.769Z,10.90
2022-09-28T07:40:53.038Z,10.90
2022-09-28T07:41:59.614Z,10.90
2022-09-28T07:43:08.574Z,11.00
2022-09-28T07:44:10.402Z,11.00
2022-09-28T07:45:12.202Z,11.00
2022-09-28T07:46:14.171Z,11.10
2022-09-28T07:47:16.651Z,11.10
2022-09-28T07:48:19.513Z,11.10
2022-09-28T07:49:23.103Z,11.10
2022-09-28T07:50:25.454Z,11.10
2022-09-28T07:51:30.263Z,11.20
2022-09-28T07:52:34.834Z,11.30
2022-09-28T07:53:38.542Z,11.20
2022-09-28T07:54:40.426Z,11.30
2022-09-28T07:55:42.508Z,11.40
2022-09-28T07:56:44.407Z,11.40
2022-09-28T07:57:48.071Z,11.40
2022-09-28T07:58:50.055Z,11.50
2022-09-28T07:59:53.917Z,11.50
2022-09-28T08:00:56.036Z,11.60
2022-09-28T08:01:59.042Z,11.60
2022-09-28T08:03:03.917Z,11.60
2022-09-28T08:04:06.609Z,11.60
2022-09-28T08:05:10.125Z,11.70
2022-09-28T08:06:14.490Z,11.80
2022-09-28T08:07:21.572Z,11.80
2022-09-28T08:08:25.367Z,11.90
2022-09-28T08:09:27.045Z,11.90
2022-09-28T08:10:34.093Z,12.00
2022-09-28T08:11:44.040Z,12.00
2022-09-28T08:12:47.183Z,12.10
2022-09-28T08:13:49.444Z,12.10
2022-09-28T08:14:52.377Z,12.10
2022-09-28T08:15:54.998Z,12.10
2022-09-28T08:16:56.670Z,12.10
2022-09-28T08:18:02.012Z,12.10
2022-09-28T08:19:07.245Z,12.10
2022-09-28T08:20:28.844Z,12.10
2022-09-28T08:21:45.465Z,12.10
2022-09-28T08:22:47.142Z,12.10
2022-09-28T08:23:49.286Z,12.10
2022-09-28T08:24:52.614Z,12.20
2022-09-28T08:25:57.627Z,12.20
2022-09-28T08:27:02.238Z,12.20
2022-09-28T08:28:09.774Z,12.20
2022-09-28T08:29:13.899Z,12.20
2022-09-28T08:30:16.725Z,12.30
2022-09-28T08:31:20.167Z,12.30
2022-09-28T08:32:22.089Z,12.30
2022-09-28T08:33:23.778Z,12.40
2022-09-28T08:34:27.238Z,12.40
2022-09-28T08:35:28.915Z,12.30
2022-09-28T08:36:30.710Z,12.30
2022-09-28T08:37:32.344Z,12.30
2022-09-28T08:38:34.262Z,12.40
2022-09-28T08:39:36.619Z,12.30
2022-09-28T08:40:50.452Z,12.30
2022-09-28T08:42:29.554Z,12.30
2022-09-28T08:43:57.417Z,12.30
2022-09-28T08:45:07.184Z,12.30
2022-09-28T08:46:13.441Z,12.40
2022-09-28T08:47:47.545Z,12.40
2022-09-28T08:49:32.213Z,12.40
2022-09-28T08:50:38.590Z,12.50
2022-09-28T08:51:55.371Z,12.50
2022-09-28T08:53:02.916Z,12.60
2022-09-28T08:54:13.857Z,12.60
2022-09-28T08:55:31.877Z,12.70
2022-09-28T08:56:54.271Z,12.80
2022-09-28T08:58:02.432Z,12.90
2022-09-28T08:59:10.490Z,12.90
2022-09-28T09:00:32.435Z,12.80
2022-09-28T09:01:47.718Z,12.90
2022-09-28T09:02:53.203Z,12.80
2022-09-28T09:03:57.463Z,12.80
2022-09-28T09:05:14.761Z,12.90
2022-09-28T09:06:34.492Z,13.00
2022-09-28T09:07:44.425Z,13.10
2022-09-28T09:09:22.728Z,13.10
2022-09-28T09:10:31.747Z,13.10
2022-09-28T09:12:05.602Z,13.00
2022-09-28T09:13:28.716Z,13.10
2022-09-28T09:14:41.721Z,13.20
2022-09-28T09:16:01.686Z,13.20
2022-09-28T09:17:23.953Z,13.20
2022-09-28T09:18:50.079Z,13.30
2022-09-28T09:19:54.828Z,13.40
2022-09-28T09:21:07.559Z,13.40
2022-09-28T09:22:16.951Z,13.40
2022-09-28T09:23:39.492Z,13.40
2022-09-28T09:24:57.089Z,13.40
2022-09-28T09:26:15.250Z,13.50
2022-09-28T09:27:57.047Z,13.50
2022-09-28T09:29:47.399Z,13.50
2022-09-28T09:31:12.741Z,13.50
2022-09-28T09:32:36.065Z,13.50
2022-09-28T09:33:45.842Z,13.60
2022-09-28T09:35:41.785Z,13.70
2022-09-28T09:38:59.161Z,13.80
2022-09-28T09:40:21.223Z,13.80
2022-09-28T09:41:48.308Z,13.90
2022-09-28T09:42:49.960Z,13.90
2022-09-28T09:44:15.088Z,14.00
2022-09-28T09:45:47.764Z,14.00
2022-09-28T09:46:58.051Z,14.10
2022-09-28T09:48:06.498Z,14.10
2022-09-28T09:49:15.029Z,14.20
2022-09-28T09:50:16.964Z,14.20
2022-09-28T09:51:49.311Z,14.30
2022-09-28T09:53:13.703Z,14.20
2022-09-28T09:54:28.579Z,14.20
2022-09-28T09:55:44.576Z,14.20
2022-09-28T09:56:54.809Z,14.20
2022-09-28T09:58:04.084Z,14.20
2022-09-28T09:59:10.355Z,14.30
2022-09-28T10:00:15.820Z,14.30
2022-09-28T10:01:21.235Z,14.30
2022-09-28T10:02:26.371Z,14.40
2022-09-28T10:03:32.698Z,14.50
2022-09-28T10:04:42.620Z,14.50
2022-09-28T10:05:50.533Z,14.60
2022-09-28T10:06:58.875Z,14.60
2022-09-28T10:08:05.032Z,14.60
2022-09-28T10:09:26.078Z,14.60
2022-09-28T10:10:36.990Z,14.70
2022-09-28T10:11:45.350Z,14.70
2022-09-28T10:12:49.663Z,14.80
2022-09-28T10:13:52.286Z,14.80
2022-09-28T10:14:55.451Z,14.80
2022-09-28T10:15:57.463Z,14.90
2022-09-28T10:17:01.005Z,14.90
2022-09-28T10:18:10.950Z,15.00
2022-09-28T10:19:13.695Z,15.00
2022-09-28T10:20:16.621Z,15.00
2022-09-28T10:21:21.793Z,15.00
2022-09-28T10:22:27.392Z,15.00
2022-09-28T10:23:34.005Z,15.10
2022-09-28T10:24:41.403Z,15.10
2022-09-28T10:25:45.958Z,15.10
2022-09-28T10:26:52.120Z,15.10
2022-09-28T10:27:55.340Z,15.10
2022-09-28T10:29:04.400Z,15.10
2022-09-28T10:30:23.292Z,15.10
2022-09-28T10:31:34.441Z,15.20
2022-09-28T10:32:37.709Z,15.30
2022-09-28T10:33:39.779Z,15.30
2022-09-28T10:34:41.584Z,15.20
2022-09-28T10:35:43.985Z,15.10
2022-09-28T10:36:58.528Z,15.20
2022-09-28T10:38:18.738Z,15.20
2022-09-28T10:39:30.225Z,15.10
2022-09-28T10:40:56.307Z,15.10
2022-09-28T10:42:18.943Z,15.10
2022-09-28T10:43:35.287Z,15.20
2022-09-28T10:45:15.539Z,15.20
2022-09-28T10:46:24.554Z,15.30
2022-09-28T10:47:30.548Z,15.90
2022-09-28T10:48:57.824Z,16.70
2022-09-28T10:50:00.984Z,16.90
2022-09-28T10:51:08.864Z,17.90
2022-09-28T10:52:36.974Z,18.30
2022-09-28T10:53:39.557Z,18.90
2022-09-28T10:54:57.187Z,19.70
2022-09-28T10:56:08.242Z,20.90
2022-09-28T10:57:32.098Z,21.90
2022-09-28T10:58:44.835Z,22.60
2022-09-28T10:59:58.262Z,23.30
2022-09-28T11:01:26.751Z,23.50
2022-09-28T11:02:42.195Z,23.50
2022-09-28T11:04:00.980Z,23.70
2022-09-28T11:05:25.030Z,23.90
2022-09-28T11:06:46.973Z,24.10
2022-09-28T11:07:51.710Z,24.80
2022-09-28T11:08:57.518Z,24.70
2022-09-28T11:10:37.039Z,24.90
2022-09-28T11:11:53.037Z,25.20
2022-09-28T11:13:10.247Z,26.00
2022-09-28T11:14:47.428Z,26.30
2022-09-28T11:15:51.895Z,26.50
2022-09-28T11:17:45.387Z,27.00
2022-09-28T11:18:51.451Z,27.00
2022-09-28T11:20:27.538Z,26.60
2022-09-28T11:21:42.382Z,26.70
2022-09-28T11:23:04.761Z,26.80
2022-09-28T11:24:20.339Z,27.40
2022-09-28T11:25:26.158Z,27.50
2022-09-28T11:26:37.818Z,27.60
2022-09-28T11:28:01.467Z,27.40
2022-09-28T11:29:08.603Z,27.10
2022-09-28T11:30:46.153Z,27.40
2022-09-28T11:31:51.245Z,28.20
2022-09-28T11:32:56.519Z,28.80
2022-09-28T11:34:16.600Z,28.80
2022-09-28T11:35:23.465Z,28.30
2022-09-28T11:36:43.993Z,27.70
2022-09-28T11:38:17.499Z,27.60
2022-09-28T11:39:57.974Z,27.50
2022-09-28T11:41:10.801Z,27.80
2022-09-28T11:42:18.046Z,29.00
2022-09-28T11:43:38.547Z,31.00
2022-09-28T11:44:46.774Z,32.00
2022-09-28T11:45:57.184Z,32.50
2022-09-28T11:47:28.739Z,32.50
2022-09-28T11:48:41.423Z,31.60
2022-09-28T11:50:07.844Z,30.70
2022-09-28T11:51:18.247Z,30.10
2022-09-28T11:52:34.987Z,29.80
2022-09-28T11:53:45.330Z,29.30
2022-09-28T11:55:22.660Z,29.30
2022-09-28T11:56:38.591Z,29.70
2022-09-28T11:57:45.152Z,29.80
2022-09-28T11:58:53.423Z,30.00
2022-09-28T12:00:09.515Z,29.90
2022-09-28T12:01:43.314Z,30.00
2022-09-28T12:03:01.407Z,30.30
2022-09-28T12:04:10.293Z,30.50
2022-09-28T12:05:28.598Z,30.20
2022-09-28T12:06:46.094Z,29.80
2022-09-28T12:08:02.117Z,29.70
2022-09-28T12:09:11.713Z,29.90
2022-09-28T12:10:25.101Z,28.70
2022-09-28T12:11:33.971Z,28.50
2022-09-28T12:13:03.264Z,27.60
2022-09-28T12:14:11.563Z,26.00
2022-09-28T12:15:16.723Z,24.20
2022-09-28T12:17:04.067Z,23.00
2022-09-28T12:18:13.413Z,22.10
2022-09-28T12:19:37.809Z,20.90
2022-09-28T12:20:44.924Z,20.20
2022-09-28T12:22:09.200Z,19.60
2022-09-28T12:23:17.140Z,19.30
2022-09-28T12:24:27.396Z,19.00
2022-09-28T12:25:37.544Z,18.70
2022-09-28T12:26:43.619Z,18.20
2022-09-28T12:27:58.567Z,17.90
2022-09-28T12:29:04.589Z,17.60
2022-09-28T12:30:28.054Z,17.30
2022-09-28T12:31:45.890Z,17.00
2022-09-28T12:32:53.320Z,16.80
2022-09-28T12:33:55.585Z,16.60
2022-09-28T12:34:59.100Z,16.50
2022-09-28T12:36:41.717Z,16.30
2022-09-28T12:38:21.190Z,16.20
2022-09-28T12:39:53.492Z,15.90
2022-09-28T12:41:06.551Z,15.90
2022-09-28T12:42:31.726Z,15.90
2022-09-28T12:44:03.917Z,15.80
2022-09-28T12:45:18.984Z,15.70
2022-09-28T12:46:39.330Z,15.50
2022-09-28T12:48:02.761Z,15.50
2022-09-28T12:50:36.571Z,15.50
2022-09-28T12:51:06.244Z,15.60
2022-09-28T12:52:29.909Z,15.70
2022-09-28T12:53:55.051Z,15.90
2022-09-28T12:55:16.239Z,16.40
2022-09-28T12:56:28.718Z,16.60
2022-09-28T12:57:45.148Z,16.70
2022-09-28T12:59:18.236Z,16.60
2022-09-28T13:00:23.312Z,16.40
2022-09-28T13:01:54.013Z,16.20
2022-09-28T13:03:34.084Z,16.10
2022-09-28T13:04:49.931Z,16.10
2022-09-28T13:06:31.033Z,15.90
2022-09-28T13:07:42.853Z,15.80
2022-09-28T13:09:01.475Z,15.90
2022-09-28T13:10:33.851Z,16.00
2022-09-28T13:11:46.938Z,16.40
2022-09-28T13:13:04.588Z,17.70
2022-09-28T13:14:24.504Z,18.10
2022-09-28T13:15:41.070Z,17.90
2022-09-28T13:16:58.400Z,17.60
2022-09-28T13:18:12.113Z,17.30
2022-09-28T13:19:14.138Z,17.00
2022-09-28T13:20:39.038Z,16.80
2022-09-28T13:21:50.809Z,16.60
2022-09-28T13:23:15.748Z,16.50
2022-09-28T13:24:33.330Z,16.40
2022-09-28T13:25:39.525Z,16.30
2022-09-28T13:26:45.461Z,16.20
2022-09-28T13:28:05.089Z,16.10
2022-09-28T13:29:14.215Z,16.10
2022-09-28T13:30:18.169Z,16.00
2022-09-28T13:31:26.692Z,15.90
2022-09-28T13:32:33.051Z,15.80
2022-09-28T13:33:43.929Z,15.70
2022-09-28T13:34:50.195Z,15.70
2022-09-28T13:35:51.945Z,15.70
2022-09-28T13:37:18.914Z,15.60
2022-09-28T13:38:23.383Z,15.60
2022-09-28T13:39:44.491Z,15.40
2022-09-28T13:41:04.285Z,15.40
2022-09-28T13:42:07.963Z,15.40
2022-09-28T13:43:31.449Z,15.30
2022-09-28T13:45:02.704Z,15.20
2022-09-28T13:46:20.460Z,15.20
2022-09-28T13:47:49.629Z,15.10
2022-09-28T13:49:05.677Z,15.10
2022-09-28T13:50:27.754Z,15.00
2022-09-28T13:51:43.016Z,15.00
2022-09-28T13:52:52.154Z,15.00
2022-09-28T13:54:41.386Z,14.90
2022-09-28T13:56:10.714Z,14.80
2022-09-28T13:57:29.987Z,14.80
2022-09-28T13:58:38.551Z,14.70
2022-09-28T14:00:02.573Z,14.70
2022-09-28T14:01:10.576Z,14.60
2022-09-28T14:02:40.273Z,14.60
2022-09-28T14:04:18.568Z,14.60
2022-09-28T14:05:25.089Z,14.50
2022-09-28T14:06:31.500Z,14.50
2022-09-28T14:07:36.142Z,14.40
2022-09-28T14:08:38.368Z,14.50
2022-09-28T14:09:41.756Z,14.40
2022-09-28T14:10:53.501Z,14.50
2022-09-28T14:12:01.448Z,14.40
2022-09-28T14:13:06.540Z,14.40
2022-09-28T14:14:14.088Z,14.40
2022-09-28T14:15:37.412Z,14.30
2022-09-28T14:16:41.030Z,14.30
2022-09-28T14:18:26.091Z,14.30
2022-09-28T14:19:33.998Z,14.30
2022-09-28T14:20:36.975Z,14.20
2022-09-28T14:22:13.710Z,14.20
2022-09-28T14:23:36.817Z,14.20
2022-09-28T14:25:06.427Z,14.10
2022-09-28T14:26:20.850Z,14.20
2022-09-28T14:27:37.528Z,14.10
2022-09-28T14:28:55.559Z,14.10
2022-09-28T14:30:11.552Z,14.10
2022-09-28T14:31:25.653Z,14.20
2022-09-28T14:32:37.017Z,14.10
2022-09-28T14:33:39.379Z,14.20
2022-09-28T14:34:44.805Z,14.20
2022-09-28T14:36:40.913Z,14.20
2022-09-28T14:38:01.618Z,14.20
2022-09-28T14:39:21.895Z,14.20
2022-09-28T14:40:51.181Z,14.20
2022-09-28T14:41:53.225Z,14.20
2022-09-28T14:43:26.400Z,14.20
2022-09-28T14:44:28.196Z,14.20
2022-09-28T14:45:38.265Z,14.20
2022-09-28T14:46:45.653Z,14.10
2022-09-28T14:48:13.931Z,14.10
2022-09-28T14:49:19.163Z,14.20
2022-09-28T14:50:24.913Z,14.10
2022-09-28T14:51:26.716Z,14.10
2022-09-28T14:53:08.927Z,14.10
2022-09-28T14:54:10.844Z,14.10
2022-09-28T14:55:15.044Z,14.10
2022-09-28T14:56:20.330Z,14.10
2022-09-28T14:57:28.526Z,14.10
2022-09-28T14:58:32.464Z,14.10
2022-09-28T14:59:42.801Z,14.10
2022-09-28T15:00:46.046Z,14.10
2022-09-28T15:01:57.864Z,14.10
2022-09-28T15:03:03.451Z,14.10
2022-09-28T15:04:11.275Z,14.10
2022-09-28T15:05:27.485Z,14.10
2022-09-28T15:06:47.932Z,14.10
2022-09-28T15:07:54.348Z,14.00
2022-09-28T15:08:56.179Z,14.00
2022-09-28T15:10:16.846Z,13.90
2022-09-28T15:11:25.620Z,13.90
2022-09-28T15:12:32.301Z,13.90
2022-09-28T15:13:45.832Z,13.90
2022-09-28T15:15:00.375Z,13.90
2022-09-28T15:16:28.594Z,13.90